Time;durP1;ratioP1;P1;durP2;ratioP2;P2;SDS_P1;SDS_P2;PMS_P1;PMS_P2;Temp;Humidity;BMP_temperature;BMP_pressure;BME280_temperature;BME280_humidity;BME280_pressure;Samples;Min_cycle;Max_cycle;Signal;HPM_P1;HPM_P2
2022/03/14 00:00:21;;;;;;;30.70;18.48;;;11.00;71.20;;;;;;5054911;28;20075;-66
2022/03/14 00:02:47;;;;;;;35.50;18.55;;;11.00;71.40;;;;;;5036943;28;20124;-66
2022/03/14 00:05:15;;;;;;;30.63;18.45;;;11.00;71.10;;;;;;5037275;28;20044;-65
2022/03/14 00:07:42;;;;;;;30.25;17.55;;;11.00;70.80;;;;;;5072822;23;20115;-70
2022/03/14 00:10:09;;;;;;;33.72;17.52;;;11.10;70.50;;;;;;5056222;28;20017;-71
2022/03/14 00:12:34;;;;;;;31.25;17.35;;;11.10;70.60;;;;;;5056669;28;20119;-72
2022/03/14 00:15:03;;;;;;;26.77;15.90;;;11.10;70.90;;;;;;5056309;28;20049;-70
2022/03/14 00:17:29;;;;;;;27.98;16.35;;;11.10;71.60;;;;;;5055557;28;20279;-72
2022/03/14 00:19:57;;;;;;;26.00;16.25;;;11.10;72.30;;;;;;5055174;28;20102;-72
2022/03/14 00:22:23;;;;;;;26.88;16.23;;;11.00;73.30;;;;;;5054477;28;20025;-71
2022/03/14 00:24:49;;;;;;;26.35;15.75;;;11.00;75.10;;;;;;5054426;28;20025;-70
2022/03/14 00:27:15;;;;;;;28.17;15.17;;;10.90;77.30;;;;;;5055422;28;20032;-70
2022/03/14 00:29:41;;;;;;;25.90;13.90;;;11.00;79.50;;;;;;5054794;28;20028;-71
2022/03/14 00:32:07;;;;;;;26.02;13.63;;;11.00;82.80;;;;;;5054008;28;20496;-71
2022/03/14 00:34:33;;;;;;;21.55;13.77;;;11.00;85.80;;;;;;5054878;28;20021;-69
2022/03/14 00:36:59;;;;;;;20.45;12.23;;;11.00;90.40;;;;;;5053458;28;20029;-72
2022/03/14 00:39:24;;;;;;;18.40;11.60;;;11.00;92.50;;;;;;5056168;28;20362;-70
2022/03/14 00:41:51;;;;;;;18.05;11.52;;;11.10;96.00;;;;;;5055484;28;20029;-70
2022/03/14 00:44:17;;;;;;;16.23;10.48;;;11.10;99.90;;;;;;5055064;28;20020;-71
2022/03/14 00:46:43;;;;;;;16.27;8.80;;;11.10;99.90;;;;;;5055045;28;20428;-71
2022/03/14 00:49:09;;;;;;;;;;;11.20;99.90;;;;;;5054532;28;20053;-71
2022/03/14 00:51:35;;;;;;;5.57;3.80;;;11.20;99.90;;;;;;5061731;28;19912;-72
2022/03/14 00:54:04;;;;;;;5.03;3.25;;;11.20;99.90;;;;;;5060686;28;20128;-71
2022/03/14 00:56:31;;;;;;;4.45;3.05;;;11.10;99.90;;;;;;5053469;28;20029;-70
2022/03/14 00:58:59;;;;;;;4.97;2.40;;;11.10;99.90;;;;;;5056725;28;20032;-71
2022/03/14 01:01:26;;;;;;;3.05;2.20;;;11.00;99.90;;;;;;5059785;28;20412;-71
2022/03/14 01:03:52;;;;;;;3.50;2.25;;;11.00;99.90;;;;;;5063627;28;20021;-71
2022/03/14 01:06:18;;;;;;;;;;;10.90;99.90;;;;;;5061923;28;20047;-71
2022/03/14 01:08:43;;;;;;;2.60;1.90;;;10.70;99.90;;;;;;5061933;28;19956;-71
2022/03/14 01:11:09;;;;;;;3.23;1.57;;;10.60;99.90;;;;;;5062388;28;20025;-70
2022/03/14 01:13:35;;;;;;;3.20;1.63;;;10.60;99.90;;;;;;5063056;28;20032;-70
2022/03/14 01:16:01;;;;;;;1.67;1.30;;;10.50;99.90;;;;;;5059551;28;20267;-70
2022/03/14 01:18:27;;;;;;;2.03;1.23;;;10.30;99.90;;;;;;5062430;28;20296;-70
2022/03/14 01:20:52;;;;;;;3.43;1.53;;;10.20;99.90;;;;;;5062114;28;20048;-71
2022/03/14 01:23:18;;;;;;;4.50;2.10;;;10.10;99.90;;;;;;5060645;28;20274;-71
2022/03/14 01:25:45;;;;;;;2.28;1.40;;;10.00;99.90;;;;;;5065646;28;20056;-70
2022/03/14 01:28:11;;;;;;;1.67;1.15;;;9.80;99.90;;;;;;5061191;28;20032;-70
2022/03/14 01:30:38;;;;;;;2.33;1.52;;;9.70;99.90;;;;;;5054493;28;20048;-70
2022/03/14 01:33:04;;;;;;;2.95;1.50;;;9.60;99.90;;;;;;5053044;28;20036;-70
2022/03/14 01:35:30;;;;;;;3.45;1.55;;;9.50;99.90;;;;;;5054991;28;20040;-71
2022/03/14 01:37:57;;;;;;;1.27;1.00;;;9.40;99.90;;;;;;5053827;28;20029;-69
2022/03/14 01:40:24;;;;;;;1.48;1.27;;;9.40;99.90;;;;;;5052603;28;20486;-69
2022/03/14 01:42:50;;;;;;;2.25;1.42;;;9.30;99.90;;;;;;5052779;28;20024;-70
2022/03/14 01:45:17;;;;;;;3.15;1.40;;;9.20;99.90;;;;;;5052758;28;20026;-70
2022/03/14 01:47:44;;;;;;;2.55;1.30;;;9.10;99.90;;;;;;5053984;28;20029;-69
2022/03/14 01:50:11;;;;;;;3.15;1.33;;;9.10;99.90;;;;;;5053541;28;20367;-70
2022/03/14 01:52:36;;;;;;;2.25;1.20;;;9.10;99.90;;;;;;5052271;28;20033;-70
2022/03/14 01:55:03;;;;;;;1.60;1.10;;;9.00;99.90;;;;;;5054283;28;20385;-70
2022/03/14 01:57:30;;;;;;;1.10;1.00;;;9.00;99.90;;;;;;5052247;28;20029;-70
2022/03/14 01:59:55;;;;;;;1.80;1.10;;;9.00;99.90;;;;;;5052747;28;20516;-71
2022/03/14 02:02:21;;;;;;;2.03;0.98;;;9.00;99.90;;;;;;5053847;28;20037;-70
2022/03/14 02:04:47;;;;;;;2.75;1.20;;;9.00;99.90;;;;;;5052985;28;20059;-70
2022/03/14 02:07:16;;;;;;;2.10;1.00;;;9.00;99.90;;;;;;5056098;28;20033;-70
2022/03/14 02:09:44;;;;;;;1.48;0.80;;;9.00;99.90;;;;;;5054764;28;20028;-70
2022/03/14 02:12:11;;;;;;;1.25;0.90;;;8.90;99.90;;;;;;5054520;28;20469;-70
2022/03/14 02:14:39;;;;;;;2.13;0.88;;;8.90;99.90;;;;;;5057807;28;20032;-70
2022/03/14 02:17:07;;;;;;;0.68;0.60;;;9.00;99.90;;;;;;5055971;28;20025;-70
2022/03/14 02:19:33;;;;;;;1.35;0.80;;;9.00;99.90;;;;;;5057227;28;20029;-70
2022/03/14 02:21:59;;;;;;;0.80;0.60;;;9.00;99.90;;;;;;5056091;28;20111;-70
2022/03/14 02:24:29;;;;;;;0.70;0.63;;;9.00;99.90;;;;;;5061520;28;20112;-71
2022/03/14 02:26:55;;;;;;;2.90;0.60;;;9.00;99.90;;;;;;5068589;28;20431;-71
2022/03/14 02:29:21;;;;;;;0.93;0.63;;;8.90;99.90;;;;;;5070270;28;20165;-71
2022/03/14 02:31:47;;;;;;;0.82;0.60;;;8.90;99.90;;;;;;5056450;28;20025;-69
2022/03/14 02:34:13;;;;;;;0.60;0.60;;;8.90;99.90;;;;;;5057844;28;20033;-70
2022/03/14 02:36:39;;;;;;;0.50;0.50;;;8.90;99.90;;;;;;5056769;28;20086;-70
2022/03/14 02:39:08;;;;;;;0.77;0.50;;;8.90;99.90;;;;;;5057055;28;20026;-70
2022/03/14 02:41:35;;;;;;;0.63;0.52;;;8.90;99.90;;;;;;5056930;28;20035;-70
2022/03/14 02:44:01;;;;;;;1.02;0.65;;;8.80;99.90;;;;;;5055694;28;20021;-70
2022/03/14 02:46:27;;;;;;;0.95;0.65;;;8.80;99.90;;;;;;5055586;28;20025;-70
2022/03/14 02:48:52;;;;;;;1.10;0.63;;;8.80;99.90;;;;;;5055583;28;20115;-70
2022/03/14 02:51:18;;;;;;;0.85;0.68;;;8.80;99.90;;;;;;5056836;28;20743;-70
2022/03/14 02:53:44;;;;;;;2.17;0.90;;;8.90;99.90;;;;;;5055307;28;20481;-70
2022/03/14 02:56:09;;;;;;;0.90;0.70;;;8.80;99.90;;;;;;5056451;28;20029;-70
2022/03/14 02:58:41;;;;;;;0.70;0.60;;;8.80;99.90;;;;;;5056665;28;20381;-70
2022/03/14 03:01:07;;;;;;;1.05;0.73;;;8.80;99.90;;;;;;5055391;28;20025;-69
2022/03/14 03:03:34;;;;;;;1.25;0.73;;;8.80;99.90;;;;;;5056442;28;20017;-70
2022/03/14 03:06:00;;;;;;;1.30;0.90;;;8.80;99.90;;;;;;5056619;28;20381;-70
2022/03/14 03:08:27;;;;;;;1.83;1.20;;;8.80;99.90;;;;;;5056796;28;20036;-70
2022/03/14 03:10:57;;;;;;;1.73;1.20;;;8.80;99.90;;;;;;5055044;28;20021;-70
2022/03/14 03:13:23;;;;;;;1.33;1.00;;;8.80;99.90;;;;;;5054661;28;20067;-70
2022/03/14 03:15:48;;;;;;;1.88;0.90;;;8.80;99.90;;;;;;5054644;28;20017;-70
2022/03/14 03:18:14;;;;;;;1.10;0.80;;;8.70;99.90;;;;;;5054637;28;20043;-70
2022/03/14 03:20:40;;;;;;;1.73;0.80;;;8.70;99.90;;;;;;5054560;28;20040;-69
2022/03/14 03:23:05;;;;;;;1.50;0.80;;;8.70;99.90;;;;;;5055777;28;20101;-70
2022/03/14 03:25:31;;;;;;;1.15;0.75;;;8.80;99.90;;;;;;5054674;28;20033;-70
2022/03/14 03:27:57;;;;;;;1.30;0.80;;;8.70;99.90;;;;;;5056015;28;20498;-70
2022/03/14 03:30:23;;;;;;;1.10;0.90;;;8.70;99.90;;;;;;5059733;28;20036;-70
2022/03/14 03:32:49;;;;;;;2.22;1.27;;;8.70;99.90;;;;;;5058877;28;20071;-70
2022/03/14 03:35:14;;;;;;;4.30;1.80;;;8.70;99.90;;;;;;5055056;28;20436;-70
2022/03/14 03:37:40;;;;;;;3.97;2.10;;;8.70;99.90;;;;;;5055957;28;20027;-70
2022/03/14 03:40:06;;;;;;;2.73;1.93;;;8.60;99.90;;;;;;5057213;28;20021;-70
2022/03/14 03:42:32;;;;;;;5.95;1.95;;;8.60;99.90;;;;;;5056339;28;20119;-69
2022/03/14 03:44:57;;;;;;;2.73;1.60;;;8.60;99.90;;;;;;5056827;28;20057;-69
2022/03/14 03:47:24;;;;;;;4.17;2.00;;;8.70;99.90;;;;;;5055933;28;20264;-70
2022/03/14 03:49:50;;;;;;;4.07;1.70;;;8.70;99.90;;;;;;5057022;28;20043;-69
2022/03/14 03:52:16;;;;;;;;;;;8.70;99.90;;;;;;5057150;28;20025;-69
2022/03/14 03:54:42;;;;;;;3.67;2.10;;;8.80;99.90;;;;;;5057237;28;20266;-70
2022/03/14 03:57:07;;;;;;;4.17;2.17;;;8.70;99.90;;;;;;5057527;28;20029;-70
2022/03/14 03:59:33;;;;;;;3.23;1.70;;;8.70;99.90;;;;;;5056044;28;20032;-70
2022/03/14 04:02:01;;;;;;;4.60;1.60;;;8.70;99.90;;;;;;5056107;28;20435;-70
2022/03/14 04:04:27;;;;;;;3.95;1.80;;;8.80;99.90;;;;;;5056551;28;20025;-70
2022/03/14 04:06:56;;;;;;;2.57;1.50;;;8.80;99.90;;;;;;5054140;28;20051;-70
2022/03/14 04:09:22;;;;;;;4.10;2.10;;;8.70;99.90;;;;;;5054096;28;20060;-70
2022/03/14 04:11:47;;;;;;;3.80;2.30;;;8.70;99.90;;;;;;5055764;28;20057;-70
2022/03/14 04:14:14;;;;;;;2.87;1.87;;;8.70;99.90;;;;;;5055193;28;20055;-70
2022/03/14 04:16:41;;;;;;;2.95;1.52;;;8.80;99.90;;;;;;5054258;28;20021;-70
2022/03/14 04:19:07;;;;;;;3.75;1.90;;;8.70;99.90;;;;;;5055298;28;20027;-69
2022/03/14 04:21:36;;;;;;;12.10;4.45;;;8.80;99.90;;;;;;5055251;28;20070;-69
2022/03/14 04:24:04;;;;;;;3.28;1.63;;;8.80;99.90;;;;;;5054029;28;20029;-69
2022/03/14 04:26:30;;;;;;;5.28;2.33;;;8.70;99.90;;;;;;5053626;28;20029;-69
2022/03/14 04:28:55;;;;;;;2.53;1.80;;;8.80;99.90;;;;;;5055228;28;20025;-70
2022/03/14 04:31:22;;;;;;;3.67;1.60;;;8.70;99.90;;;;;;5059741;28;20024;-70
2022/03/14 04:33:47;;;;;;;4.18;1.70;;;8.80;99.90;;;;;;5059769;28;20025;-70
2022/03/14 04:36:14;;;;;;;1.20;0.85;;;8.70;99.90;;;;;;5057121;28;20040;-69
2022/03/14 04:38:39;;;;;;;3.92;1.17;;;8.70;99.90;;;;;;5054775;28;20025;-70
2022/03/14 04:41:05;;;;;;;4.00;2.47;;;8.60;99.90;;;;;;5054055;28;20432;-70
2022/03/14 04:43:31;;;;;;;1.90;1.10;;;8.70;99.90;;;;;;5055305;28;20020;-70
2022/03/14 04:45:57;;;;;;;2.63;1.50;;;8.60;99.90;;;;;;5058096;28;20053;-70
2022/03/14 04:48:23;;;;;;;3.92;1.90;;;8.70;99.90;;;;;;5057581;28;20029;-70
2022/03/14 04:50:50;;;;;;;2.13;1.75;;;8.60;99.90;;;;;;5058153;28;20092;-70
2022/03/14 04:53:17;;;;;;;1.90;1.48;;;8.70;99.90;;;;;;5056721;28;20469;-70
2022/03/14 04:55:42;;;;;;;;;;;8.70;99.90;;;;;;5053288;28;20036;-70
2022/03/14 04:58:14;;;;;;;3.30;1.38;;;8.70;99.90;;;;;;5054618;28;19909;-68
2022/03/14 05:00:39;;;;;;;2.78;1.25;;;8.70;99.90;;;;;;5054244;28;20382;-69
2022/03/14 05:03:07;;;;;;;5.25;2.78;;;8.60;99.90;;;;;;5053648;28;20493;-69
2022/03/14 05:05:33;;;;;;;4.53;2.85;;;8.70;99.90;;;;;;5052672;28;20525;-69
2022/03/14 05:08:00;;;;;;;1.60;1.10;;;8.70;99.90;;;;;;5052620;28;20167;-71
2022/03/14 05:10:27;;;;;;;5.03;3.17;;;8.70;99.90;;;;;;5053953;28;20029;-69
2022/03/14 05:12:52;;;;;;;2.50;1.42;;;8.60;99.90;;;;;;5053735;28;20024;-68
2022/03/14 05:15:18;;;;;;;1.73;1.20;;;8.70;99.90;;;;;;5052375;28;20482;-70
2022/03/14 05:17:45;;;;;;;2.40;1.07;;;8.60;99.90;;;;;;5052193;28;20413;-69
2022/03/14 05:20:11;;;;;;;1.90;1.15;;;8.50;99.90;;;;;;5053775;28;20055;-68
2022/03/14 05:22:51;;;;;;;1.33;1.00;;;8.60;99.90;;;;;;5053614;28;20025;-70
2022/03/14 05:25:22;;;;;;;2.17;1.25;;;8.60;99.90;;;;;;5053608;28;20017;-69
2022/03/14 05:27:49;;;;;;;2.08;1.17;;;8.60;99.90;;;;;;5052008;28;20044;-69
2022/03/14 05:30:15;;;;;;;2.60;1.15;;;8.60;99.90;;;;;;5052326;28;20025;-69
2022/03/14 05:32:42;;;;;;;2.55;1.60;;;8.60;99.90;;;;;;5053432;28;20104;-69
2022/03/14 05:35:08;;;;;;;;;;;8.60;99.90;;;;;;5053680;28;20037;-69
2022/03/14 05:37:34;;;;;;;3.40;1.42;;;8.50;99.90;;;;;;5052593;28;19915;-71
2022/03/14 05:40:00;;;;;;;2.53;1.48;;;8.60;99.90;;;;;;5053548;28;20394;-68
2022/03/14 05:42:26;;;;;;;6.22;3.28;;;8.70;99.90;;;;;;5052461;28;20028;-70
2022/03/14 05:44:53;;;;;;;4.82;2.40;;;8.60;99.90;;;;;;5052893;28;20051;-69
2022/03/14 05:47:19;;;;;;;;;;;8.60;99.90;;;;;;5053535;28;20393;-70
2022/03/14 05:49:45;;;;;;;4.97;2.13;;;8.60;99.90;;;;;;5052574;28;19975;-68
2022/03/14 05:52:14;;;;;;;5.50;1.33;;;8.50;99.90;;;;;;5053603;28;20474;-69
2022/03/14 05:54:40;;;;;;;2.40;1.45;;;8.60;99.90;;;;;;5053286;28;20037;-69
2022/03/14 05:57:06;;;;;;;4.28;1.10;;;8.50;99.90;;;;;;5053280;28;20029;-71
2022/03/14 05:59:32;;;;;;;2.57;1.03;;;8.50;99.90;;;;;;5053580;28;20470;-69
2022/03/14 06:01:57;;;;;;;3.00;1.42;;;8.60;99.90;;;;;;5052029;28;20027;-69
2022/03/14 06:04:23;;;;;;;3.43;1.00;;;8.60;99.90;;;;;;5053623;28;20032;-69
2022/03/14 06:06:53;;;;;;;1.67;1.13;;;8.60;99.90;;;;;;5053771;28;20151;-70
2022/03/14 06:09:19;;;;;;;3.25;1.40;;;8.60;99.90;;;;;;5051683;28;20845;-69
2022/03/14 06:11:45;;;;;;;4.20;1.60;;;8.60;99.90;;;;;;5051749;28;20033;-69
2022/03/14 06:14:12;;;;;;;3.45;1.40;;;8.50;99.90;;;;;;5052940;28;20417;-69
2022/03/14 06:16:38;;;;;;;;;;;8.50;99.90;;;;;;5052525;28;20119;-70
2022/03/14 06:19:04;;;;;;;3.70;1.40;;;8.40;99.90;;;;;;5054888;28;19905;-70
2022/03/14 06:21:30;;;;;;;2.27;1.30;;;8.50;99.90;;;;;;5056030;28;20017;-65
2022/03/14 06:23:55;;;;;;;5.03;1.48;;;8.50;99.90;;;;;;5053845;28;20052;-65
2022/03/14 06:26:21;;;;;;;3.63;1.40;;;8.40;99.90;;;;;;5052782;28;20017;-66
2022/03/14 06:28:47;;;;;;;2.57;1.00;;;8.40;99.90;;;;;;5053703;28;20083;-68
2022/03/14 06:31:16;;;;;;;4.43;1.23;;;8.40;99.90;;;;;;5052416;28;20174;-68
2022/03/14 06:33:41;;;;;;;2.90;1.00;;;8.50;99.90;;;;;;5054685;28;20021;-69
2022/03/14 06:36:07;;;;;;;2.53;0.90;;;8.40;99.90;;;;;;5052030;28;20378;-69
2022/03/14 06:38:34;;;;;;;6.43;1.10;;;8.40;99.90;;;;;;5053349;28;20029;-69
2022/03/14 06:41:01;;;;;;;6.15;1.23;;;8.30;99.90;;;;;;5052383;28;20021;-69
2022/03/14 06:43:28;;;;;;;6.95;1.40;;;8.20;99.90;;;;;;5051871;28;20024;-69
2022/03/14 06:45:53;;;;;;;4.65;1.30;;;8.20;99.90;;;;;;5053520;28;20021;-69
2022/03/14 06:48:19;;;;;;;5.30;1.20;;;8.20;99.90;;;;;;5055034;28;20048;-69
2022/03/14 06:50:44;;;;;;;4.73;1.20;;;8.20;99.90;;;;;;5055854;28;20404;-69
2022/03/14 06:53:10;;;;;;;5.07;1.90;;;8.30;99.90;;;;;;5054770;28;20492;-70
2022/03/14 06:55:36;;;;;;;4.13;1.40;;;8.30;99.90;;;;;;5054074;28;20027;-69
2022/03/14 06:58:02;;;;;;;2.33;1.00;;;8.30;99.90;;;;;;5054384;28;20604;-71
2022/03/14 07:00:28;;;;;;;7.18;1.13;;;8.40;99.90;;;;;;5056499;28;20036;-69
2022/03/14 07:02:54;;;;;;;3.37;1.10;;;8.40;99.90;;;;;;5057002;28;20033;-68
2022/03/14 07:05:23;;;;;;;3.05;1.25;;;8.50;99.90;;;;;;5057093;28;20299;-69
2022/03/14 07:07:52;;;;;;;3.92;1.80;;;8.60;99.90;;;;;;5056547;28;20062;-69
2022/03/14 07:10:19;;;;;;;3.42;1.15;;;8.60;99.90;;;;;;5056811;28;20059;-69
2022/03/14 07:12:46;;;;;;;2.60;0.90;;;8.70;99.90;;;;;;5056742;28;20032;-69
2022/03/14 07:15:14;;;;;;;4.50;1.30;;;8.80;99.90;;;;;;5054991;28;20112;-68
2022/03/14 07:17:40;;;;;;;5.00;1.30;;;8.90;99.90;;;;;;5054803;28;20028;-68
2022/03/14 07:20:06;;;;;;;;;;;9.00;99.90;;;;;;5056875;28;20017;-67
2022/03/14 07:22:33;;;;;;;3.03;1.80;;;9.00;99.90;;;;;;5056516;28;20246;-69
2022/03/14 07:24:59;;;;;;;5.78;2.55;;;9.00;99.90;;;;;;5056193;28;20028;-68
2022/03/14 07:27:24;;;;;;;7.97;3.08;;;9.00;99.90;;;;;;5056801;28;20028;-69
2022/03/14 07:29:50;;;;;;;3.10;1.20;;;9.10;99.90;;;;;;5055683;28;20037;-70
2022/03/14 07:32:15;;;;;;;3.03;1.67;;;9.10;99.90;;;;;;5057356;28;20051;-69
2022/03/14 07:34:41;;;;;;;4.07;1.80;;;9.20;99.90;;;;;;5057119;28;20039;-69
2022/03/14 07:37:07;;;;;;;2.23;0.90;;;9.20;99.90;;;;;;5056322;28;20154;-69
2022/03/14 07:39:32;;;;;;;4.37;1.60;;;9.20;99.90;;;;;;5059822;28;20032;-69
2022/03/14 07:41:58;;;;;;;4.50;1.73;;;9.30;99.90;;;;;;5058771;28;20293;-70
2022/03/14 07:44:23;;;;;;;3.23;1.10;;;9.30;99.90;;;;;;5055999;28;20028;-71
2022/03/14 07:46:49;;;;;;;7.37;5.57;;;9.30;99.90;;;;;;5055387;28;20684;-69
2022/03/14 07:49:15;;;;;;;4.97;1.50;;;9.30;99.90;;;;;;5055626;28;20065;-69
2022/03/14 07:51:41;;;;;;;9.43;6.20;;;9.20;99.90;;;;;;5054985;28;20025;-69
2022/03/14 07:54:07;;;;;;;2.53;1.30;;;9.30;99.90;;;;;;5054484;28;20029;-70
2022/03/14 07:56:32;;;;;;;5.35;1.42;;;9.30;99.90;;;;;;5055923;28;20036;-69
2022/03/14 07:58:58;;;;;;;7.93;2.80;;;9.40;99.90;;;;;;5055610;28;20389;-69
2022/03/14 08:01:23;;;;;;;5.83;3.10;;;9.40;99.90;;;;;;5054797;28;20492;-68
2022/03/14 08:03:49;;;;;;;2.80;1.13;;;9.30;99.90;;;;;;5054833;28;20056;-69
2022/03/14 08:06:23;;;;;;;2.57;1.63;;;9.30;99.90;;;;;;5055090;28;20033;-68
2022/03/14 08:08:50;;;;;;;4.18;1.45;;;9.40;99.90;;;;;;5054839;28;20029;-69
2022/03/14 08:11:17;;;;;;;6.15;1.50;;;9.60;99.90;;;;;;5053673;28;20021;-70
2022/03/14 08:13:43;;;;;;;4.32;2.03;;;9.80;99.90;;;;;;5054824;28;20032;-68
2022/03/14 08:16:09;;;;;;;3.65;1.58;;;10.10;99.90;;;;;;5055314;28;20025;-68
2022/03/14 08:18:35;;;;;;;3.08;1.17;;;10.30;99.90;;;;;;5054216;28;20115;-69
2022/03/14 08:21:02;;;;;;;4.97;1.38;;;10.30;99.90;;;;;;5055606;28;20079;-69
2022/03/14 08:23:28;;;;;;;1.63;1.13;;;10.40;99.90;;;;;;5055650;28;20104;-68
2022/03/14 08:25:54;;;;;;;2.33;1.10;;;10.40;99.90;;;;;;5053523;28;20044;-68
2022/03/14 08:28:20;;;;;;;3.42;1.45;;;10.50;99.90;;;;;;5053763;28;20045;-69
2022/03/14 08:30:48;;;;;;;3.78;1.15;;;10.40;99.90;;;;;;5054388;28;20046;-69
2022/03/14 08:33:14;;;;;;;2.38;0.90;;;10.40;99.90;;;;;;5055537;28;20046;-70
2022/03/14 08:35:39;;;;;;;4.13;1.45;;;10.40;99.90;;;;;;5053709;28;20025;-68
2022/03/14 08:38:06;;;;;;;5.50;1.73;;;10.40;99.90;;;;;;5053280;28;20175;-69
2022/03/14 08:40:31;;;;;;;3.03;1.00;;;10.60;99.90;;;;;;5054472;28;20030;-69
2022/03/14 08:42:57;;;;;;;5.63;1.17;;;10.80;99.90;;;;;;5054573;28;20034;-69
2022/03/14 08:45:25;;;;;;;3.22;1.10;;;10.80;99.90;;;;;;5055678;28;20077;-70
2022/03/14 08:47:52;;;;;;;3.33;1.00;;;10.70;99.90;;;;;;5055713;28;20036;-69
2022/03/14 08:50:17;;;;;;;2.72;1.20;;;10.60;99.90;;;;;;5055056;28;20032;-68
2022/03/14 08:52:45;;;;;;;2.80;1.20;;;10.40;99.90;;;;;;5055787;28;20029;-70
2022/03/14 08:55:12;;;;;;;5.18;1.10;;;10.30;99.90;;;;;;5055834;28;20025;-70
2022/03/14 08:57:37;;;;;;;3.53;1.00;;;10.30;99.90;;;;;;5053451;28;20482;-69
2022/03/14 09:00:05;;;;;;;2.63;1.20;;;10.30;99.90;;;;;;5054760;28;20131;-69
2022/03/14 09:02:30;;;;;;;2.72;1.05;;;10.50;99.90;;;;;;5054810;28;20021;-70
2022/03/14 09:04:56;;;;;;;3.23;1.00;;;10.70;99.90;;;;;;5056082;28;20028;-70
2022/03/14 09:07:26;;;;;;;3.80;1.20;;;10.90;99.90;;;;;;5055526;28;20033;-72
2022/03/14 09:09:52;;;;;;;3.85;0.98;;;11.10;99.90;;;;;;5054151;28;20272;-72
2022/03/14 09:12:19;;;;;;;3.67;1.02;;;12.10;99.90;;;;;;5055389;28;20100;-71
2022/03/14 09:14:46;;;;;;;5.53;1.52;;;13.60;99.90;;;;;;5054779;28;20055;-70
2022/03/14 09:17:12;;;;;;;3.60;0.85;;;14.40;99.90;;;;;;5053907;28;20434;-70
2022/03/14 09:19:38;;;;;;;5.68;1.20;;;15.30;98.00;;;;;;5055211;28;20548;-69
2022/03/14 09:22:08;;;;;;;2.50;1.17;;;15.60;96.70;;;;;;5054552;28;20060;-70
2022/03/14 09:24:36;;;;;;;6.05;1.25;;;16.70;94.00;;;;;;5055233;28;20074;-69
2022/03/14 09:27:03;;;;;;;3.75;1.00;;;16.90;92.50;;;;;;5053034;28;20048;-69
2022/03/14 09:29:28;;;;;;;3.30;1.30;;;16.90;92.20;;;;;;5054643;28;20029;-68
2022/03/14 09:31:55;;;;;;;2.83;1.15;;;17.40;91.00;;;;;;5053529;28;20032;-70
2022/03/14 09:34:21;;;;;;;5.78;1.52;;;19.10;86.40;;;;;;5053535;28;20485;-69
2022/03/14 09:36:47;;;;;;;4.85;1.60;;;20.50;79.50;;;;;;5055356;28;20040;-69
2022/03/14 09:39:14;;;;;;;4.32;1.42;;;21.50;73.00;;;;;;5054217;28;20059;-69
2022/03/14 09:41:42;;;;;;;7.68;1.80;;;22.50;69.40;;;;;;5053432;28;20021;-69
2022/03/14 09:44:10;;;;;;;3.38;1.52;;;22.90;66.60;;;;;;5054842;28;20033;-69
2022/03/14 09:46:39;;;;;;;2.63;1.13;;;22.90;64.90;;;;;;5054313;28;20025;-68
2022/03/14 09:49:09;;;;;;;3.38;1.10;;;23.60;63.60;;;;;;5052611;28;20082;-68
2022/03/14 09:51:39;;;;;;;5.18;1.83;;;24.70;61.10;;;;;;5054224;28;20028;-69
2022/03/14 09:54:07;;;;;;;3.28;1.50;;;25.30;58.60;;;;;;5055321;28;20021;-69
2022/03/14 09:56:33;;;;;;;3.30;1.30;;;25.90;57.80;;;;;;5051968;28;20035;-69
2022/03/14 09:58:59;;;;;;;5.82;1.83;;;26.50;56.70;;;;;;5052193;28;20108;-69
2022/03/14 10:01:27;;;;;;;8.05;1.88;;;26.50;54.90;;;;;;5053419;28;20021;-68
2022/03/14 10:03:54;;;;;;;3.42;1.45;;;26.30;55.10;;;;;;5053545;28;20021;-68
2022/03/14 10:06:20;;;;;;;6.88;2.08;;;27.20;53.70;;;;;;5052917;28;20054;-68
2022/03/14 10:08:46;;;;;;;4.38;1.40;;;27.80;52.70;;;;;;5053272;28;20057;-68
2022/03/14 10:11:12;;;;;;;7.55;1.77;;;27.00;52.90;;;;;;5052420;28;20045;-69
2022/03/14 10:13:37;;;;;;;5.30;1.63;;;26.30;53.20;;;;;;5053610;28;20017;-68
2022/03/14 10:16:05;;;;;;;5.30;1.30;;;26.10;54.00;;;;;;5053042;28;20386;-70
2022/03/14 10:18:36;;;;;;;6.20;1.73;;;25.00;54.50;;;;;;5051837;28;20029;-69
2022/03/14 10:21:07;;;;;;;6.63;1.70;;;24.00;56.20;;;;;;5053264;28;20021;-68
2022/03/14 10:23:36;;;;;;;6.47;1.60;;;23.30;57.50;;;;;;5054266;28;20025;-70
2022/03/14 10:26:03;;;;;;;5.63;1.30;;;21.00;59.30;;;;;;5053807;28;20027;-69
2022/03/14 10:28:30;;;;;;;8.88;2.25;;;18.60;64.60;;;;;;5053974;28;20017;-69
2022/03/14 10:30:59;;;;;;;7.90;1.70;;;17.90;68.40;;;;;;5053954;28;20106;-68
2022/03/14 10:33:25;;;;;;;5.47;1.45;;;18.30;68.20;;;;;;5055159;28;20078;-69
2022/03/14 10:35:54;;;;;;;5.78;1.83;;;18.50;67.80;;;;;;5057770;28;20025;-69
2022/03/14 10:38:21;;;;;;;5.43;2.00;;;19.90;65.30;;;;;;5057578;28;20028;-68
2022/03/14 10:40:47;;;;;;;3.90;1.70;;;21.40;62.50;;;;;;5057417;28;20041;-68
2022/03/14 10:43:25;;;;;;;3.47;1.23;;;22.70;59.80;;;;;;5056996;28;20032;-69
2022/03/14 10:45:52;;;;;;;3.47;1.27;;;23.30;58.10;;;;;;5058551;28;20083;-70
2022/03/14 10:48:38;;;;;;;5.05;2.05;;;24.60;56.10;;;;;;5060014;28;20032;-70
2022/03/14 10:51:06;;;;;;;4.00;1.30;;;24.80;54.90;;;;;;5057399;28;20027;-69
2022/03/14 10:53:34;;;;;;;3.88;1.55;;;22.50;57.40;;;;;;5056980;28;20120;-69
2022/03/14 10:56:01;;;;;;;2.45;1.20;;;21.00;60.20;;;;;;5057748;28;20060;-69
2022/03/14 10:58:34;;;;;;;7.13;1.25;;;19.00;62.90;;;;;;5057344;28;20374;-68
2022/03/14 11:01:03;;;;;;;7.05;1.65;;;17.40;67.60;;;;;;5058061;28;20017;-69
2022/03/14 11:03:31;;;;;;;6.55;1.60;;;16.50;71.10;;;;;;5057950;28;20107;-69
2022/03/14 11:06:05;;;;;;;2.78;1.08;;;15.80;74.40;;;;;;5055359;28;20454;-68
2022/03/14 11:08:36;;;;;;;8.20;1.90;;;15.40;77.60;;;;;;5056666;28;20550;-68
2022/03/14 11:11:05;;;;;;;7.03;1.35;;;15.10;80.40;;;;;;5056300;28;20032;-69
2022/03/14 11:13:31;;;;;;;4.82;1.30;;;14.80;82.90;;;;;;5058010;28;20334;-69
2022/03/14 11:15:57;;;;;;;5.32;1.50;;;14.50;83.10;;;;;;5057778;28;20028;-69
2022/03/14 11:18:24;;;;;;;6.75;1.15;;;14.40;84.90;;;;;;5057076;28;20029;-69
2022/03/14 11:20:51;;;;;;;4.22;1.10;;;14.40;86.90;;;;;;5057670;28;20067;-69
2022/03/14 11:23:19;;;;;;;5.32;1.65;;;14.40;87.80;;;;;;5057256;28;20024;-68
2022/03/14 11:25:45;;;;;;;8.25;1.20;;;14.50;88.80;;;;;;5055793;28;20021;-69
2022/03/14 11:28:16;;;;;;;5.38;2.00;;;14.50;88.80;;;;;;5055796;28;20338;-69
2022/03/14 11:30:48;;;;;;;8.50;3.38;;;14.50;87.80;;;;;;5056204;28;20033;-69
2022/03/14 11:33:14;;;;;;;6.20;1.98;;;14.20;88.40;;;;;;5057755;28;20355;-69
2022/03/14 11:35:41;;;;;;;;;;;14.20;88.50;;;;;;5055973;28;20025;-69
2022/03/14 11:38:08;;;;;;;6.18;2.08;;;14.10;89.20;;;;;;5055243;28;20053;-69
2022/03/14 11:40:36;;;;;;;9.20;5.88;;;14.10;89.00;;;;;;5055104;28;20048;-69
2022/03/14 11:43:02;;;;;;;8.63;2.33;;;14.10;88.50;;;;;;5056959;28;20021;-69
2022/03/14 11:45:29;;;;;;;;;;;14.10;89.00;;;;;;5056698;28;20040;-68
2022/03/14 11:47:55;;;;;;;4.93;1.10;;;14.30;90.20;;;;;;5055767;28;19904;-69
2022/03/14 11:50:22;;;;;;;5.25;1.30;;;14.30;86.40;;;;;;5054230;28;20052;-69
2022/03/14 11:52:50;;;;;;;3.60;1.20;;;14.20;86.60;;;;;;5054240;28;20363;-68
2022/03/14 11:55:29;;;;;;;9.23;3.78;;;14.20;87.50;;;;;;5054594;28;20027;-68
2022/03/14 11:57:55;;;;;;;12.05;5.68;;;14.30;87.20;;;;;;5055931;28;20047;-69
2022/03/14 12:00:21;;;;;;;5.18;1.48;;;14.50;86.90;;;;;;5055782;28;20085;-69
2022/03/14 12:02:51;;;;;;;3.00;0.97;;;14.70;86.40;;;;;;5055497;28;20096;-69
2022/03/14 12:05:34;;;;;;;6.38;1.45;;;14.90;84.90;;;;;;5054538;28;20569;-69
2022/03/14 12:08:00;;;;;;;3.55;1.15;;;15.00;83.10;;;;;;5077678;22;20041;-59
2022/03/14 12:10:31;;;;;;;3.72;1.08;;;15.00;82.60;;;;;;5055809;28;20067;-62
2022/03/14 12:13:00;;;;;;;6.65;1.15;;;15.00;80.70;;;;;;5056846;28;20049;-63
2022/03/14 12:15:43;;;;;;;3.63;1.77;;;14.90;79.20;;;;;;5056388;28;20021;-63
2022/03/14 12:18:26;;;;;;;4.97;1.25;;;14.90;78.80;;;;;;5054103;28;20071;-62
2022/03/14 12:20:53;;;;;;;7.05;1.30;;;14.90;78.00;;;;;;5055653;28;20029;-63
2022/03/14 12:23:28;;;;;;;4.45;1.02;;;15.00;77.90;;;;;;5055223;28;20051;-63
2022/03/14 12:25:54;;;;;;;5.82;2.15;;;15.00;77.50;;;;;;5056440;28;20096;-63
2022/03/14 12:28:32;;;;;;;6.05;1.08;;;15.00;76.90;;;;;;5055269;28;20131;-61
2022/03/14 12:31:10;;;;;;;4.18;1.10;;;14.90;77.40;;;;;;5055439;28;20529;-62
2022/03/14 12:33:45;;;;;;;6.03;1.23;;;14.70;77.40;;;;;;5055094;28;20040;-62
2022/03/14 12:36:22;;;;;;;5.53;1.90;;;14.60;79.40;;;;;;5055128;28;20369;-62
2022/03/14 12:39:07;;;;;;;6.88;1.48;;;14.50;80.00;;;;;;5055067;28;20032;-62
2022/03/14 12:41:37;;;;;;;6.13;1.00;;;14.60;80.90;;;;;;5053382;28;20025;-63
2022/03/14 12:44:16;;;;;;;4.32;1.27;;;14.60;81.50;;;;;;5055473;28;20013;-63
2022/03/14 12:46:43;;;;;;;4.85;1.40;;;14.60;81.20;;;;;;5054578;28;20490;-62
2022/03/14 12:49:09;;;;;;;7.78;1.67;;;14.60;81.20;;;;;;5054441;28;20371;-61
2022/03/14 12:51:41;;;;;;;3.42;1.33;;;14.60;81.60;;;;;;5054801;28;20031;-62